Terminal Aerodrome Forecast
Issued by NWS Bismarck, ND

Home | Current Version | Previous Version | Text Only | Print | Product List | Glossary Off
Versions: 1 2 3 4 5 6 7 8 9 10 11 12 13 14 15 16 17 18 19 20 21

000
FTUS43 KBIS 300924 AAD
TAFBIS
TAF AMD
KBIS 300924Z 3009/3106 25015G25KT 2SM +TSRA BR FEW035CB OVC100
      TEMPO 3009/3010 6SM -TSRA BKN050CB
     FM301000 15008KT P6SM SCT100
     FM301700 16008KT P6SM FEW250=

USA.gov is the U.S. government's official web portal to all federal, state and local government web resources and services.